Latest Weather Observations for St Lawrence

IDQ60801

Issued at 2:32 pm EST Saturday 4 July 2015 (issued every 30 minutes, with the page automatically refreshed every 10 minutes)

About weather observations | Map of weather stations | Latest weather observations for QLD | Other Formats
Station Details ID: 033210 Name: ST LAWRENCE Lat: -22.35 Lon: 149.52 Height: 9.19 m
Data from the previous 72 hours. | See also: Recent months at St Lawrence
Date/Time
EST
Temp
°C
App
Temp
°C
Dew
Point
Rel
Hum
%
Delta-T
°C
Wind Press
QNH
hPa
Press
MSL
hPa
Rain
since 9 am
mm
Dir
 
Spd
km/h
Gust
km/h
Spd
kts
Gust
kts
04/02:30pm 20.9 20.3 13.4 62 4.3 NNW 9 11 5 6 1019.0 1019.0 0.0
04/02:00pm 20.8 20.0 13.0 61 4.4 ENE 9 13 5 7 1019.3 1019.3 0.0
04/01:30pm 20.7 19.8 13.6 64 4.1 NNE 11 13 6 7 1019.4 1019.4 0.0
04/01:00pm 21.1 20.2 12.5 58 4.8 E 9 20 5 11 1019.7 1019.7 0.0
04/12:30pm 21.7 20.1 11.7 53 5.6 E 11 19 6 10 1019.9 1019.9 0.0
04/12:00pm 21.7 20.1 11.7 53 5.6 E 11 19 6 10 1020.2 1020.2 0.0
04/11:30am 21.7 19.7 10.2 48 6.3 SE 11 20 6 11 1020.6 1020.6 0.0
04/11:00am 20.4 17.7 9.0 48 6.0 SSE 13 20 7 11 1021.1 1021.1 0.0
04/10:30am 19.8 17.4 8.5 48 5.9 SSE 11 19 6 10 1021.3 1021.3 0.0
04/10:00am 18.1 14.5 6.9 48 5.6 SSE 15 20 8 11 1021.4 1021.4 0.0
04/09:30am 16.7 13.4 6.2 50 5.1 S 13 19 7 10 1021.7 1021.7 0.0
04/09:00am 15.6 11.5 6.1 53 4.6 S 17 22 9 12 1022.0 1022.0 0.0
04/08:30am 14.4 10.5 5.5 55 4.2 S 15 24 8 13 1021.9 1021.9 0.0
04/08:00am 13.4 10.0 6.0 61 3.5 S 13 19 7 10 1021.7 1021.7 0.0
04/07:30am 11.5 8.5 5.8 68 2.6 S 11 15 6 8 1021.3 1021.3 0.0
04/07:00am 10.1 7.4 5.7 74 2.0 S 9 15 5 8 1020.9 1020.9 0.0
04/06:30am 9.6 6.6 6.0 78 1.7 S 11 13 6 7 1021.0 1021.0 0.0
04/06:00am 9.0 6.4 6.1 82 1.3 S 9 11 5 6 1020.6 1020.6 0.0
04/05:30am 8.3 6.1 5.4 82 1.3 S 6 6 3 3 1020.5 1020.5 0.0
04/05:00am 9.0 7.0 6.1 82 1.3 SW 6 7 3 4 1020.4 1020.4 0.0
04/04:30am 9.2 7.0 6.3 82 1.3 SW 7 7 4 4 1020.4 1020.4 0.0
04/04:00am 8.8 6.7 5.7 81 1.4 S 6 7 3 4 1020.4 1020.4 0.0
04/03:30am 9.6 7.4 6.0 78 1.7 S 7 9 4 5 1020.2 1020.2 0.0
04/03:00am 9.2 7.0 6.3 82 1.3 SW 7 9 4 5 1020.4 1020.4 0.0
04/02:30am 8.3 6.0 4.9 79 1.5 SW 6 9 3 5 1020.6 1020.6 0.0
04/02:00am 9.0 6.7 5.0 76 1.8 SSW 6 9 3 5 1020.6 1020.6 0.0
04/01:30am 9.1 6.8 4.7 74 2.0 SW 6 7 3 4 1020.8 1020.8 0.0
04/01:00am 9.3 6.9 4.5 72 2.1 SW 6 9 3 5 1021.2 1021.2 0.0
04/12:30am 9.9 7.5 4.3 68 2.5 SW 6 7 3 4 1021.4 1021.4 0.0
04/12:00am 9.9 7.5 4.1 67 2.5 SW 6 9 3 5 1021.7 1021.7 0.0
 
Date/Time
EST
Temp
°C
App
Temp
°C
Dew
Point
Rel
Hum
%
Delta-T
°C
Wind Press
QNH
hPa
Press
MSL
hPa
Rain
since 9 am
mm
Dir
 
Spd
km/h
Gust
km/h
Spd
kts
Gust
kts
03/11:30pm 9.8 7.3 4.0 67 2.6 SW 6 7 3 4 1022.1 1022.1 0.0
03/11:00pm 10.3 7.8 3.8 64 2.8 SW 6 7 3 4 1022.3 1022.3 0.0
03/10:30pm 10.2 7.5 3.5 63 2.9 WSW 7 11 4 6 1022.4 1022.4 0.0
03/10:00pm 10.0 7.5 3.7 65 2.7 WSW 6 9 3 5 1022.3 1022.3 0.0
03/09:30pm 10.6 7.9 3.9 63 3.0 SW 7 11 4 6 1022.3 1022.3 0.0
03/09:00pm 10.0 7.0 4.2 67 2.6 W 9 9 5 5 1022.1 1022.1 0.0
03/08:30pm 11.5 8.9 3.0 56 3.7 S 6 6 3 3 1021.9 1021.9 0.0
03/08:00pm 13.4 10.9 4.0 53 4.2 ENE 6 11 3 6 1021.7 1021.7 0.0
03/07:30pm 14.1 10.9 3.3 48 4.9 S 9 9 5 5 1021.2 1021.2 0.0
03/07:00pm 14.5 11.6 2.7 45 5.2 SSE 7 9 4 5 1020.8 1020.8 0.0
03/06:30pm 16.5 13.5 2.2 38 6.4 SSE 7 9 4 5 1020.2 1020.2 0.0
03/06:00pm 16.5 13.5 1.8 37 6.5 SE 7 11 4 6 1019.8 1019.8 0.0
03/05:30pm 18.2 16.0 0.8 31 7.7 E 2 6 1 3 1019.6 1019.6 0.0
03/05:00pm 20.8 17.5 0.1 25 9.2 SE 7 15 4 8 1019.2 1019.2 0.0
03/04:30pm 21.5 17.4 0.1 24 9.6 SSE 11 15 6 8 1018.7 1018.7 0.0
03/04:00pm 21.8 18.2 0.9 25 9.5 S 9 15 5 8 1018.5 1018.5 0.0
03/03:30pm 22.1 19.0 1.2 25 9.6 S 7 17 4 9 1018.2 1018.2 0.0
03/03:00pm 21.7 17.7 0.3 24 9.6 SSE 11 20 6 11 1018.2 1018.2 0.0
03/02:30pm 21.7 17.4 0.8 25 9.5 SSE 13 20 7 11 1018.3 1018.3 0.0
03/02:00pm 21.4 17.2 1.6 27 9.1 S 13 24 7 13 1018.6 1018.6 0.0
03/01:30pm 20.5 15.9 1.4 28 8.7 SSE 15 24 8 13 1018.7 1018.7 0.0
03/01:00pm 20.0 15.2 2.8 32 8.0 S 17 24 9 13 1019.2 1019.2 0.0
03/12:30pm 19.4 14.5 2.3 32 7.9 S 17 26 9 14 1019.7 1019.7 0.0
03/12:00pm 18.6 14.3 3.3 36 7.1 SSE 15 26 8 14 1020.4 1020.4 0.0
03/11:30am 17.7 12.4 2.8 37 6.8 S 20 33 11 18 1020.9 1020.9 0.0
03/11:00am 16.8 11.5 3.1 40 6.3 S 20 35 11 19 1021.4 1021.4 0.0
03/10:30am 16.1 11.0 3.9 44 5.6 S 20 30 11 16 1021.7 1021.7 0.0
03/10:00am 14.9 9.7 3.7 47 5.1 S 20 33 11 18 1021.9 1021.9 0.0
03/09:30am 13.8 7.1 3.9 51 4.5 S 28 39 15 21 1022.0 1022.0 0.0
03/09:00am 13.4 7.5 4.0 53 4.2 S 24 35 13 19 1022.1 1022.1 0.0
03/08:30am 12.5 7.4 4.0 56 3.8 S 20 32 11 17 1022.2 1022.2 0.0
03/08:00am 11.7 6.8 4.9 63 3.1 S 20 32 11 17 1022.0 1022.0 0.0
03/07:30am 10.7 6.3 5.0 68 2.6 S 17 28 9 15 1021.7 1021.7 0.0
03/07:00am 10.0 6.4 5.2 72 2.2 S 13 20 7 11 1021.4 1021.4 0.0
03/06:30am 10.1 6.9 5.3 72 2.2 S 11 17 6 9 1021.1 1021.1 0.0
03/06:00am 10.1 7.3 5.3 72 2.2 S 9 13 5 7 1020.7 1020.7 0.0
03/05:30am 10.7 8.3 5.3 69 2.5 SSE 7 11 4 6 1020.3 1020.3 0.0
03/05:00am 11.5 8.1 5.8 68 2.6 S 13 19 7 10 1019.9 1019.9 0.0
03/04:30am 11.7 8.6 5.6 66 2.8 S 11 15 6 8 1019.9 1019.9 0.0
03/04:00am 12.8 8.6 5.7 62 3.3 S 17 24 9 13 1019.8 1019.8 0.0
03/03:30am 13.7 9.1 5.8 59 3.7 S 19 30 10 16 1019.7 1019.7 0.0
03/03:00am 14.2 10.1 6.1 58 3.9 S 17 30 9 16 1019.7 1019.7 0.0
03/02:30am 14.5 10.0 6.3 58 3.9 S 19 32 10 17 1019.7 1019.7 0.0
03/02:00am 14.2 10.2 6.8 61 3.6 S 17 30 9 16 1020.0 1020.0 0.0
03/01:30am 14.0 11.2 6.8 62 3.5 S 11 17 6 9 1020.2 1020.2 0.0
03/01:00am 14.7 11.6 7.3 61 3.6 S 13 19 7 10 1020.4 1020.4 0.0
03/12:30am 14.8 12.1 7.4 61 3.7 S 11 19 6 10 1020.7 1020.7 0.0
03/12:00am 13.3 11.5 8.0 70 2.6 SSW 7 13 4 7 1020.8 1020.8 0.0
 
Date/Time
EST
Temp
°C
App
Temp
°C
Dew
Point
Rel
Hum
%
Delta-T
°C
Wind Press
QNH
hPa
Press
MSL
hPa
Rain
since 9 am
mm
Dir
 
Spd
km/h
Gust
km/h
Spd
kts
Gust
kts
02/11:30pm 13.0 11.2 8.1 72 2.4 S 7 9 4 5 1021.0 1021.0 0.0
02/11:00pm 12.4 10.8 7.9 74 2.2 SSW 6 7 3 4 1021.2 1021.2 0.0
02/10:30pm 13.0 11.4 8.1 72 2.4 SSW 6 7 3 4 1021.2 1021.2 0.0
02/10:00pm 13.5 13.1 8.1 70 2.7 CALM 0 0 0 0 1021.3 1021.3 0.0
02/09:30pm 13.6 13.0 7.6 67 2.9 CALM 0 0 0 0 1021.2 1021.2 0.0
02/09:00pm 15.1 14.7 8.1 63 3.5 CALM 0 0 0 0 1020.9 1020.9 0.0
02/08:30pm 16.6 14.8 8.1 57 4.3 SSE 7 13 4 7 1020.7 1020.7 0.0
02/08:00pm 17.2 15.1 8.1 55 4.6 S 9 13 5 7 1020.3 1020.3 0.0
02/07:30pm 18.1 15.6 8.1 52 5.1 S 11 15 6 8 1020.0 1020.0 0.0
02/07:00pm 19.6 17.5 8.3 48 5.8 SSE 9 13 5 7 1019.3 1019.3 0.0
02/06:30pm 18.4 16.7 8.4 52 5.2 SE 7 9 4 5 1018.8 1018.8 0.0
02/06:00pm 19.1 17.5 7.8 48 5.8 SE 6 7 3 4 1018.6 1018.6 0.0
02/05:30pm 22.1 20.3 7.9 40 7.4 SSE 7 11 4 6 1018.4 1018.4 0.0
02/05:00pm 23.7 21.1 7.8 36 8.4 SSE 11 15 6 8 1018.2 1018.2 0.0
02/04:30pm 24.5 21.9 7.6 34 8.9 SSE 11 17 6 9 1017.9 1017.9 0.0
02/04:00pm 24.6 21.6 7.7 34 8.9 SSE 13 20 7 11 1017.9 1017.9 0.0
02/03:30pm 25.2 23.1 8.2 34 9.1 S 9 20 5 11 1018.0 1018.0 0.0
02/03:00pm 25.6 22.2 7.7 32 9.5 SSW 15 26 8 14 1018.0 1018.0 0.0
02/02:30pm 25.3 22.1 8.3 34 9.1 S 15 22 8 12 1018.2 1018.2 0.0
02/02:00pm 25.8 22.5 9.6 36 8.9 SSW 17 30 9 16 1018.3 1018.3 0.0
02/01:30pm 24.8 21.6 9.9 39 8.2 S 17 22 9 12 1018.4 1018.4 0.0
02/01:00pm 24.9 21.7 10.0 39 8.2 SSE 17 28 9 15 1019.0 1019.0 0.0
02/12:30pm 23.9 21.3 10.6 43 7.4 SSE 15 26 8 14 1019.8 1019.8 0.0
02/12:00pm 23.0 20.0 10.8 46 6.7 SE 17 26 9 14 1020.4 1020.4 0.0
02/11:30am 22.4 19.9 10.9 48 6.4 SE 15 22 8 12 1020.9 1020.9 0.0
02/11:00am 22.2 19.8 11.3 50 6.0 SSE 15 24 8 13 1021.5 1021.5 0.0
02/10:30am 20.8 17.2 10.6 52 5.6 S 20 28 11 15 1022.3 1022.3 0.0
02/10:00am 19.8 16.3 10.8 56 4.9 S 20 28 11 15 1022.6 1022.6 0.0
02/09:30am 19.1 16.2 10.9 59 4.5 S 17 28 9 15 1022.6 1022.6 0.0
02/09:00am 17.7 14.3 10.6 63 3.8 S 19 28 10 15 1022.7 1022.7 0.0
02/08:30am 16.7 13.7 10.8 68 3.2 S 17 24 9 13 1022.8 1022.8 0.0
02/08:00am 15.9 14.4 10.7 71 2.7 S 9 17 5 9 1022.8 1022.8 0.0
02/07:30am 14.9 12.6 10.3 74 2.4 S 13 19 7 10 1022.5 1022.5 0.0
02/07:00am 14.3 12.0 10.3 77 2.1 S 13 17 7 9 1022.1 1022.1 0.0
02/06:30am 14.3 12.0 10.5 78 2.0 S 13 17 7 9 1021.6 1021.6 0.0
02/06:00am 14.1 12.5 10.3 78 2.0 S 9 13 5 7 1021.2 1021.2 0.0
02/05:30am 14.5 12.7 10.7 78 2.0 S 11 17 6 9 1021.1 1021.1 0.0
02/05:00am 14.5 12.6 10.5 77 2.1 S 11 17 6 9 1021.0 1021.0 0.0
02/04:30am 14.8 12.6 10.8 77 2.1 S 13 19 7 10 1021.0 1021.0 0.0
02/04:00am 14.7 12.9 10.7 77 2.1 S 11 17 6 9 1021.1 1021.1 0.0
02/03:30am 15.3 13.9 10.9 75 2.3 S 9 13 5 7 1021.0 1021.0 0.0
02/03:00am 15.5 14.2 11.1 75 2.3 S 9 13 5 7 1020.9 1020.9 0.0
02/02:30am 16.0 14.7 11.4 74 2.5 S 9 13 5 7 1021.1 1021.1 0.0
02/02:00am 16.1 15.0 12.1 77 2.2 SSE 9 13 5 7 1021.2 1021.2 0.0
02/01:30am 14.2 13.8 12.9 92 0.7 S 7 9 4 5 1021.4 1021.4 0.0
02/01:00am 14.5 14.3 13.0 91 0.8 SSW 6 7 3 4 1021.6 1021.6 0.0
02/12:30am 15.5 15.5 13.5 88 1.1 SW 6 7 3 4 1021.6 1021.6 0.0
02/12:00am 15.3 16.5 13.8 91 0.8 CALM 0 0 0 0 1021.9 1021.9 0.0
 
Date/Time
EST
Temp
°C
App
Temp
°C
Dew
Point
Rel
Hum
%
Delta-T
°C
Wind Press
QNH
hPa
Press
MSL
hPa
Rain
since 9 am
mm
Dir
 
Spd
km/h
Gust
km/h
Spd
kts
Gust
kts
01/11:30pm 15.0 16.0 13.2 89 1.0 CALM 0 0 0 0 1022.0 1022.0 0.0
01/11:00pm 15.6 16.9 14.0 90 0.9 CALM 0 0 0 0 1022.1 1022.1 0.0
01/10:30pm 15.9 16.1 14.1 89 1.0 SW 6 7 3 4 1022.0 1022.0 0.0
01/10:00pm 16.0 17.3 14.0 88 1.1 CALM 0 0 0 0 1022.1 1022.1 0.0
01/09:30pm 16.5 17.5 14.3 87 1.3 SSW 2 6 1 3 1022.1 1022.1 0.0
01/09:00pm 17.1 18.5 14.4 84 1.5 CALM 0 0 0 0 1022.0 1022.0 0.0
01/08:30pm 17.4 18.8 14.3 82 1.8 CALM 0 0 0 0 1021.8 1021.8 0.0
01/08:00pm 18.2 19.0 14.9 81 1.9 SSW 4 7 2 4 1021.5 1021.5 0.0
01/07:30pm 19.3 20.2 15.2 77 2.4 NE 4 7 2 4 1021.1 1021.1 0.0
01/07:00pm 20.2 20.8 15.8 76 2.6 NE 7 9 4 5 1020.8 1020.8 0.0
01/06:30pm 20.9 21.1 15.7 72 3.1 NE 9 11 5 6 1020.6 1020.6 0.0
01/06:00pm 21.5 21.5 15.3 68 3.7 NNE 9 11 5 6 1020.2 1020.2 0.0
01/05:30pm 22.1 21.8 15.5 66 3.9 NE 11 15 6 8 1020.0 1020.0 0.0
01/05:00pm 23.7 22.5 14.1 55 5.6 NE 13 17 7 9 1019.7 1019.7 0.0
01/04:30pm 24.5 22.8 13.7 51 6.3 NNE 15 20 8 11 1019.4 1019.4 0.0
01/04:00pm 25.3 23.2 12.5 45 7.4 NNE 15 19 8 10 1019.3 1019.3 0.0
01/03:30pm 26.5 25.9 13.6 45 7.6 NNE 9 20 5 11 1019.2 1019.2 0.0
01/03:00pm 26.1 25.0 13.2 44 7.5 NE 11 19 6 10 1019.4 1019.4 0.0

Other Formats:

Comma delimited format used in spreadsheet applications
http://www.bom.gov.au/fwo/IDQ60801/IDQ60801.95369.axf

JavaScript Object Notation format (JSON) in row-major order
http://www.bom.gov.au/fwo/IDQ60801/IDQ60801.95369.json